Time;durP1;ratioP1;P1;durP2;ratioP2;P2;SDS_P1;SDS_P2;PMS_P1;PMS_P2;Temp;Humidity;BMP_temperature;BMP_pressure;BME280_temperature;BME280_humidity;BME280_pressure;Samples;Min_cycle;Max_cycle;Signal;HPM_P1;HPM_P2
2022/04/17 00:02:23;;;;;;;9.23;4.87;;;;;;;6.90;62.38;100894.28;123853;1099;104342;-77
2022/04/17 00:04:56;;;;;;;9.60;5.07;;;;;;;6.90;62.81;100883.84;123829;1099;104322;-77
2022/04/17 00:07:28;;;;;;;10.95;5.20;;;;;;;6.91;62.18;100890.87;123867;1099;104370;-78
2022/04/17 00:10:02;;;;;;;8.03;4.80;;;;;;;6.92;62.66;100882.22;124009;1099;104292;-77
2022/04/17 00:12:31;;;;;;;;;;;;;;;6.93;62.57;100884.02;123899;1099;104307;-77
2022/04/17 00:15:05;;;;;;;10.83;5.80;;;;;;;6.94;62.59;100878.00;124014;1097;104354;-77
2022/04/17 00:17:42;;;;;;;9.43;5.50;;;;;;;6.91;62.41;100883.94;123792;1096;104338;-77
2022/04/17 00:20:15;;;;;;;12.07;5.70;;;;;;;6.93;62.75;100900.56;123887;1099;104265;-77
2022/04/17 00:22:47;;;;;;;11.50;5.67;;;;;;;6.93;62.78;100895.34;123818;1099;104265;-77
2022/04/17 00:25:21;;;;;;;11.83;5.67;;;;;;;6.93;62.84;100910.11;123762;1099;104342;-77
2022/04/17 00:27:53;;;;;;;10.37;5.63;;;;;;;6.93;63.02;100912.72;123728;1099;104459;-77
2022/04/17 00:30:29;;;;;;;9.90;5.10;;;;;;;6.90;62.71;100902.11;123926;1099;104264;-77
2022/04/17 00:33:02;;;;;;;10.13;5.37;;;;;;;6.87;63.02;100896.72;123875;1099;104309;-76
2022/04/17 00:35:43;;;;;;;11.93;5.60;;;;;;;6.83;63.16;100909.59;123787;1099;105632;-77
2022/04/17 00:38:16;;;;;;;10.63;5.63;;;;;;;6.81;63.26;100885.14;123977;1099;104674;-77
2022/04/17 00:40:48;;;;;;;10.03;5.17;;;;;;;6.76;63.71;100899.63;123772;1099;104243;-77
2022/04/17 00:43:29;;;;;;;12.45;5.40;;;;;;;6.75;63.52;100904.77;123819;1099;104281;-77
2022/04/17 00:46:03;;;;;;;12.47;5.93;;;;;;;6.72;63.44;100909.80;123845;1099;104433;-77
2022/04/17 00:48:38;;;;;;;9.40;5.30;;;;;;;6.69;64.00;100923.55;123870;1099;104349;-77
2022/04/17 00:51:11;;;;;;;9.18;5.30;;;;;;;6.65;63.96;100926.78;123943;1096;104236;-77
2022/04/17 00:53:45;;;;;;;10.37;5.83;;;;;;;6.64;63.49;100917.18;123984;1099;104294;-77
2022/04/17 00:56:17;;;;;;;10.47;5.63;;;;;;;6.63;63.49;100921.47;124061;1096;104297;-77
2022/04/17 00:58:49;;;;;;;11.23;5.87;;;;;;;6.64;63.71;100914.57;123809;1099;104292;-77
2022/04/17 01:01:20;;;;;;;9.53;5.17;;;;;;;6.65;63.53;100918.95;123770;1099;104341;-78
2022/04/17 01:03:53;;;;;;;11.60;5.70;;;;;;;6.64;63.38;100915.46;124005;1099;104380;-77
2022/04/17 01:06:27;;;;;;;10.40;5.50;;;;;;;6.64;63.20;100918.06;123880;1099;104293;-78
2022/04/17 01:09:01;;;;;;;10.27;5.60;;;;;;;6.65;63.71;100916.34;123801;1097;104342;-77
2022/04/17 01:11:33;;;;;;;12.35;5.90;;;;;;;6.65;63.85;100918.95;123884;1098;104173;-77
2022/04/17 01:14:08;;;;;;;10.23;5.70;;;;;;;6.61;63.57;100903.96;123815;1098;104242;-77
2022/04/17 01:16:42;;;;;;;12.60;5.60;;;;;;;6.61;63.82;100897.03;123886;1099;104489;-76
2022/04/17 01:19:16;;;;;;;13.47;5.70;;;;;;;6.59;63.47;100892.52;123708;1099;104430;-77
2022/04/17 01:21:49;;;;;;;10.38;5.75;;;;;;;6.57;64.00;100905.47;123884;1099;104294;-77
2022/04/17 01:27:11;;;;;;;12.57;5.73;;;;;;;6.50;63.71;100902.41;123887;1099;104422;-76
2022/04/17 01:29:43;;;;;;;9.10;5.10;;;;;;;6.44;63.93;100898.65;123810;1099;104796;-77
2022/04/17 01:32:15;;;;;;;12.20;5.77;;;;;;;6.39;63.83;100901.78;123793;1099;104293;-77
2022/04/17 01:34:47;;;;;;;11.23;5.17;;;;;;;6.36;64.10;100897.31;123934;1099;104256;-76
2022/04/17 01:37:19;;;;;;;10.30;5.37;;;;;;;6.34;63.71;100900.63;123792;1098;104293;-76
2022/04/17 01:39:52;;;;;;;12.63;5.90;;;;;;;6.32;64.26;100897.92;123884;1099;104294;-77
2022/04/17 01:42:23;;;;;;;11.27;5.00;;;;;;;6.32;63.98;100908.34;123694;1097;104339;-77
2022/04/17 01:44:56;;;;;;;9.97;5.13;;;;;;;6.25;63.80;100895.78;123797;1099;104339;-78
2022/04/17 01:47:28;;;;;;;11.35;5.10;;;;;;;6.22;63.61;100890.39;123888;1097;104315;-77
2022/04/17 01:50:01;;;;;;;12.73;5.00;;;;;;;6.17;63.49;100899.62;123768;1099;104309;-77
2022/04/17 01:52:34;;;;;;;9.30;4.92;;;;;;;6.14;63.65;100891.62;123641;1099;104306;-77
2022/04/17 01:55:06;;;;;;;9.27;4.70;;;;;;;6.11;63.84;100882.82;123903;1099;104354;-77
2022/04/17 01:57:40;;;;;;;10.43;5.20;;;;;;;6.08;63.22;100887.84;123820;1099;105624;-77
2022/04/17 02:00:14;;;;;;;9.58;4.53;;;;;;;6.06;62.98;100893.77;123767;1097;104271;-78
2022/04/17 02:02:46;;;;;;;10.23;4.97;;;;;;;6.01;63.27;100901.30;123785;1099;104264;-77
2022/04/17 02:05:18;;;;;;;9.10;4.40;;;;;;;6.01;63.17;100905.63;123965;1099;104310;-77
2022/04/17 02:07:52;;;;;;;8.37;4.07;;;;;;;6.03;62.57;100897.11;123615;1099;104374;-76
2022/04/17 02:10:23;;;;;;;9.07;4.87;;;;;;;6.01;62.67;100901.30;123709;1099;104347;-77
2022/04/17 02:12:59;;;;;;;6.85;4.20;;;;;;;5.99;63.05;100896.83;123835;1099;104261;-77
2022/04/17 02:15:33;;;;;;;8.50;4.30;;;;;;;5.97;62.66;100904.55;123878;1099;104338;-77
2022/04/17 02:18:05;;;;;;;8.70;4.10;;;;;;;5.95;62.46;100900.89;123807;1099;104261;-77
2022/04/17 02:20:41;;;;;;;6.43;3.80;;;;;;;5.96;62.57;100900.09;123790;1097;104326;-77
2022/04/17 02:23:12;;;;;;;7.93;4.00;;;;;;;5.96;61.71;100902.70;123979;1099;104342;-76
2022/04/17 02:25:45;;;;;;;8.97;3.90;;;;;;;5.96;62.25;100907.03;123942;1098;104312;-77
2022/04/17 02:28:18;;;;;;;7.67;4.10;;;;;;;5.94;61.55;100901.72;123956;1099;104332;-76
2022/04/17 02:30:51;;;;;;;6.73;3.90;;;;;;;5.94;61.88;100900.00;124044;1099;104370;-77
2022/04/17 02:33:23;;;;;;;9.77;3.83;;;;;;;5.96;61.64;100892.28;123832;1097;104351;-77
2022/04/17 02:35:59;;;;;;;8.00;3.93;;;;;;;5.94;61.07;100901.72;123781;1099;104349;-77
2022/04/17 02:38:32;;;;;;;8.40;4.00;;;;;;;5.94;60.98;100893.91;123751;1098;104290;-77
2022/04/17 02:41:05;;;;;;;8.60;3.70;;;;;;;5.94;61.45;100897.40;123811;1099;104696;-77
2022/04/17 02:43:40;;;;;;;8.15;3.72;;;;;;;5.95;60.67;100893.08;123911;1097;104237;-76
2022/04/17 02:47:42;;;;;;;8.97;3.80;;;;;;;5.92;60.79;100891.21;123752;1099;104400;-77
2022/04/17 02:49:07;;;;;;;6.33;3.30;;;;;;;5.90;61.00;100895.41;123716;1099;104348;-77
2022/04/17 02:51:39;;;;;;;7.65;3.85;;;;;;;5.88;60.32;100891.81;123905;1099;104638;-77
2022/04/17 02:54:14;;;;;;;5.00;3.40;;;;;;;5.88;60.50;100894.42;123887;1099;104236;-76
2022/04/17 02:56:47;;;;;;;7.97;3.50;;;;;;;5.89;60.22;100913.55;123737;1099;104470;-77
2022/04/17 02:59:19;;;;;;;5.10;3.33;;;;;;;5.86;60.24;100898.65;123866;1099;104389;-77
2022/04/17 03:07:32;;;;;;;7.10;3.90;;;;;;;5.81;59.93;100896.56;123772;1099;104233;-78
2022/04/17 03:10:04;;;;;;;8.20;3.85;;;;;;;5.80;59.75;100892.14;124042;1099;104290;-77
2022/04/17 03:12:38;;;;;;;6.17;3.53;;;;;;;5.79;59.56;100888.66;123717;1099;104354;-77
2022/04/17 03:15:12;;;;;;;6.47;3.90;;;;;;;5.79;59.59;100887.77;124058;1099;105447;-76
2022/04/17 03:17:46;;;;;;;6.33;3.83;;;;;;;5.79;59.71;100879.95;123887;1099;104344;-77
2022/04/17 03:20:18;;;;;;;5.97;3.67;;;;;;;5.75;59.73;100887.58;123839;1099;105074;-77
2022/04/17 03:22:50;;;;;;;7.17;3.57;;;;;;;5.73;59.47;100894.41;123751;1099;104239;-77
2022/04/17 03:25:23;;;;;;;6.20;3.63;;;;;;;5.73;59.49;100903.90;123787;1099;104303;-77
2022/04/17 03:27:55;;;;;;;7.93;3.70;;;;;;;5.68;59.46;100898.41;123890;1099;104216;-77
2022/04/17 03:30:27;;;;;;;8.23;4.07;;;;;;;5.66;59.55;100896.53;123850;1099;104354;-76
2022/04/17 03:32:59;;;;;;;7.03;3.80;;;;;;;5.63;59.84;100897.23;123846;1099;104692;-77
2022/04/17 03:35:32;;;;;;;7.83;3.93;;;;;;;5.62;59.50;100900.63;123811;1099;104335;-76
2022/04/17 03:38:05;;;;;;;7.70;3.83;;;;;;;5.61;59.53;100905.74;123709;1099;104319;-76
2022/04/17 03:40:37;;;;;;;6.55;3.83;;;;;;;5.60;59.85;100897.05;123765;1099;104342;-75
2022/04/17 03:43:09;;;;;;;7.25;3.90;;;;;;;5.63;59.75;100902.44;123866;1097;104299;-77
2022/04/17 03:45:41;;;;;;;6.80;4.17;;;;;;;5.64;59.62;100888.63;123748;1099;104239;-77
2022/04/17 03:48:17;;;;;;;8.57;4.10;;;;;;;5.63;59.53;100892.03;123909;1099;104376;-77
2022/04/17 03:50:49;;;;;;;8.53;4.10;;;;;;;5.63;59.22;100897.23;123668;1099;104275;-77
2022/04/17 03:53:21;;;;;;;6.30;3.67;;;;;;;5.61;59.61;100891.05;123784;1099;104399;-77
2022/04/17 03:55:53;;;;;;;7.03;3.77;;;;;;;5.60;59.66;100886.63;123629;1099;104348;-77
2022/04/17 03:58:25;;;;;;;6.50;3.70;;;;;;;5.62;59.61;100898.03;123730;1099;104264;-78
2022/04/17 04:00:56;;;;;;;8.07;4.07;;;;;;;5.62;59.64;100900.63;123759;1099;104387;-77
2022/04/17 04:03:30;;;;;;;8.50;4.10;;;;;;;5.61;59.36;100914.48;123641;1097;104408;-77
2022/04/17 04:06:01;;;;;;;7.63;3.93;;;;;;;5.66;59.81;100912.16;123644;1099;104319;-77
2022/04/17 04:08:33;;;;;;;6.77;3.80;;;;;;;5.72;59.77;100917.75;123540;1099;104322;-77
2022/04/17 04:11:06;;;;;;;6.30;3.57;;;;;;;5.76;59.79;100924.92;123575;1099;104239;-77
2022/04/17 04:13:38;;;;;;;7.13;4.17;;;;;;;5.81;59.67;100923.48;123711;1099;104320;-78
2022/04/17 04:16:10;;;;;;;8.83;3.80;;;;;;;5.83;59.35;100924.51;123826;1099;104386;-76
2022/04/17 04:18:43;;;;;;;6.90;3.90;;;;;;;5.81;59.78;100922.60;123807;1097;104342;-77
2022/04/17 04:21:16;;;;;;;8.60;3.90;;;;;;;5.84;59.67;100920.19;123599;1099;105452;-77
2022/04/17 04:23:49;;;;;;;6.27;3.67;;;;;;;5.89;60.06;100931.78;123735;1099;104264;-77
2022/04/17 04:26:21;;;;;;;8.50;3.83;;;;;;;5.85;59.26;100915.07;123702;1099;104259;-77
2022/04/17 04:28:53;;;;;;;6.77;4.00;;;;;;;5.82;59.25;100914.88;123958;1097;104354;-74
2022/04/17 04:31:25;;;;;;;6.57;3.50;;;;;;;5.79;59.67;100908.59;123876;1099;104351;-75
2022/04/17 04:33:56;;;;;;;7.93;4.00;;;;;;;5.80;59.32;100910.38;123925;1099;104392;-75
2022/04/17 04:36:29;;;;;;;6.40;3.70;;;;;;;5.82;59.47;100908.78;123877;1099;104236;-75
2022/04/17 04:39:01;;;;;;;6.30;3.63;;;;;;;5.81;59.51;100909.58;123767;1099;104403;-75
2022/04/17 04:41:34;;;;;;;8.27;4.03;;;;;;;5.87;59.47;100918.66;123668;1099;104370;-77
2022/04/17 04:44:08;;;;;;;6.95;3.47;;;;;;;5.91;59.75;100924.98;123655;1099;104366;-77
2022/04/17 04:46:41;;;;;;;7.87;3.77;;;;;;;5.90;59.80;100918.84;123354;1099;104443;-77
2022/04/17 04:49:33;;;;;;;5.90;3.80;;;;;;;5.92;59.73;100929.36;123705;1099;104244;-77
2022/04/17 04:52:07;;;;;;;6.73;3.80;;;;;;;5.88;60.05;100933.48;123722;1097;104414;-77
2022/04/17 04:54:40;;;;;;;7.70;4.20;;;;;;;5.85;59.97;100940.23;123730;1098;104367;-75
2022/04/17 04:57:13;;;;;;;6.78;4.03;;;;;;;5.81;59.86;100933.91;123829;1098;104797;-76
2022/04/17 04:59:46;;;;;;;7.07;3.97;;;;;;;5.85;60.06;100935.02;123747;1099;104370;-77
2022/04/17 05:02:19;;;;;;;9.00;4.17;;;;;;;5.88;59.80;100930.00;123715;1099;104319;-77
2022/04/17 05:04:51;;;;;;;8.50;4.30;;;;;;;5.90;60.02;100938.80;123632;1099;104313;-77
2022/04/17 05:07:23;;;;;;;6.33;4.00;;;;;;;5.93;60.10;100931.17;123846;1099;104347;-77
2022/04/17 05:09:54;;;;;;;7.40;4.10;;;;;;;5.98;59.57;100932.37;123717;1099;104355;-77
2022/04/17 05:12:27;;;;;;;7.03;4.07;;;;;;;6.06;60.24;100936.37;123738;1097;104297;-75
2022/04/17 05:15:01;;;;;;;7.53;4.00;;;;;;;6.13;59.88;100929.81;124020;1099;104251;-75
2022/04/17 05:17:32;;;;;;;7.55;4.20;;;;;;;6.14;60.10;100926.41;123778;1099;104434;-77
2022/04/17 05:20:04;;;;;;;6.50;3.80;;;;;;;6.19;59.80;100931.91;123941;1099;104293;-76
2022/04/17 05:22:37;;;;;;;6.43;3.77;;;;;;;6.22;59.63;100940.80;123849;1098;104715;-77
2022/04/17 05:25:11;;;;;;;6.67;3.83;;;;;;;6.23;59.59;100921.75;123789;1099;104294;-77
2022/04/17 05:27:43;;;;;;;6.80;4.03;;;;;;;6.24;59.38;100926.14;123927;1099;104216;-78
2022/04/17 05:30:17;;;;;;;6.43;3.80;;;;;;;6.32;59.62;100923.10;124105;1099;104357;-75
2022/04/17 05:32:49;;;;;;;6.70;3.90;;;;;;;6.37;59.44;100908.63;124133;1099;104294;-76
2022/04/17 05:35:23;;;;;;;7.47;4.13;;;;;;;6.45;59.33;100921.31;123926;1099;104351;-77
2022/04/17 05:37:55;;;;;;;6.20;3.70;;;;;;;6.52;59.67;100906.03;123794;1099;104325;-77
2022/04/17 05:40:27;;;;;;;6.35;3.60;;;;;;;6.56;59.02;100894.95;123780;1099;104264;-75
2022/04/17 05:43:00;;;;;;;6.97;4.13;;;;;;;6.54;58.50;100910.51;123750;1096;104459;-76
2022/04/17 05:45:33;;;;;;;7.70;3.90;;;;;;;6.58;58.84;100904.67;123703;1099;104264;-77
2022/04/17 05:48:09;;;;;;;6.17;3.90;;;;;;;6.64;58.71;100880.67;123893;1099;104296;-77
2022/04/17 05:50:42;;;;;;;9.37;3.97;;;;;;;6.79;58.82;100891.98;123762;1099;104351;-78
2022/04/17 05:53:14;;;;;;;6.57;3.73;;;;;;;6.87;58.65;100909.77;123725;1099;104335;-78
2022/04/17 05:55:49;;;;;;;10.23;3.70;;;;;;;6.90;57.95;100899.50;123856;1099;104268;-77
2022/04/17 05:58:20;;;;;;;7.53;3.93;;;;;;;6.94;57.75;100896.27;123802;1098;104367;-77
2022/04/17 06:00:55;;;;;;;8.77;4.27;;;;;;;6.94;57.73;100896.27;123677;1099;104264;-77
2022/04/17 06:03:29;;;;;;;8.57;3.93;;;;;;;6.98;57.53;100893.92;123844;1099;104264;-77
2022/04/17 06:06:00;;;;;;;7.33;4.05;;;;;;;7.07;57.67;100888.30;123877;1099;104264;-76
2022/04/17 06:08:33;;;;;;;7.50;3.83;;;;;;;7.09;57.71;100884.09;123777;1099;104374;-78
2022/04/17 06:11:05;;;;;;;6.57;3.63;;;;;;;7.12;57.58;100886.87;123791;1099;104309;-77
2022/04/17 06:13:39;;;;;;;5.97;3.97;;;;;;;7.13;57.40;100892.97;123865;1099;104399;-77
2022/04/17 06:16:12;;;;;;;5.40;4.00;;;;;;;7.17;57.60;100885.41;123733;1099;104332;-77
2022/04/17 06:18:44;;;;;;;8.17;3.87;;;;;;;7.27;57.36;100893.74;123687;1097;104354;-77
2022/04/17 06:21:18;;;;;;;6.50;3.30;;;;;;;7.33;56.40;100896.69;123895;1099;104272;-76
2022/04/17 06:23:47;;;;;;;;;;;;;;;7.39;56.15;100899.64;123602;1099;104300;-77
2022/04/17 06:26:20;;;;;;;6.60;3.60;;;;;;;7.41;56.31;100905.83;123860;1099;104261;-77
2022/04/17 06:28:52;;;;;;;8.13;3.70;;;;;;;7.45;56.23;100886.92;123705;1097;104261;-77
2022/04/17 06:31:24;;;;;;;6.45;3.60;;;;;;;7.54;55.96;100892.64;123799;1099;104286;-78
2022/04/17 06:33:55;;;;;;;7.03;3.63;;;;;;;7.59;55.75;100910.26;123716;1099;104351;-77
2022/04/17 06:36:28;;;;;;;8.67;3.63;;;;;;;7.60;55.63;100909.45;123737;1097;104382;-77
2022/04/17 06:39:00;;;;;;;6.63;4.00;;;;;;;7.59;55.26;100920.70;123828;1098;104262;-76
2022/04/17 06:41:32;;;;;;;6.15;3.85;;;;;;;7.64;55.10;100909.70;123797;1098;104274;-76
2022/04/17 06:44:04;;;;;;;6.80;3.93;;;;;;;7.60;54.62;100925.13;123721;1099;104366;-77
2022/04/17 06:46:35;;;;;;;6.73;3.80;;;;;;;7.56;55.10;100918.84;123794;1099;104345;-77
2022/04/17 06:49:08;;;;;;;5.80;3.60;;;;;;;7.60;54.96;100920.78;123633;1099;104373;-77
2022/04/17 06:51:42;;;;;;;6.67;3.70;;;;;;;7.55;54.49;100917.03;123795;1099;104319;-77
2022/04/17 06:54:14;;;;;;;6.95;3.70;;;;;;;7.63;55.04;100920.95;123643;1099;104641;-77
2022/04/17 06:56:48;;;;;;;6.17;3.73;;;;;;;7.75;55.00;100923.34;123706;1099;104213;-78
2022/04/17 06:59:21;;;;;;;6.25;3.60;;;;;;;7.81;54.89;100930.62;123840;1099;104236;-76
2022/04/17 07:01:54;;;;;;;4.20;3.20;;;;;;;7.75;53.67;100936.41;123625;1099;104794;-76
2022/04/17 07:04:28;;;;;;;6.17;3.73;;;;;;;7.73;54.23;100935.44;123699;1099;104303;-77
2022/04/17 07:07:00;;;;;;;7.83;3.90;;;;;;;7.71;52.47;100937.05;123777;1099;104210;-77
2022/04/17 07:09:31;;;;;;;5.83;3.77;;;;;;;7.68;53.06;100934.27;123822;1099;104335;-77
2022/04/17 07:12:03;;;;;;;6.17;3.80;;;;;;;7.69;54.06;100936.07;123758;1099;104364;-77
2022/04/17 07:14:35;;;;;;;6.53;3.57;;;;;;;7.68;53.81;100931.66;123852;1099;104351;-76
2022/04/17 07:17:10;;;;;;;5.93;3.57;;;;;;;7.72;53.55;100931.02;123800;1097;104235;-77
2022/04/17 07:19:44;;;;;;;5.43;3.27;;;;;;;7.84;54.05;100944.73;123710;1099;104249;-77
2022/04/17 07:22:17;;;;;;;6.17;3.50;;;;;;;7.94;53.73;100929.55;123924;1099;104351;-77
2022/04/17 07:24:53;;;;;;;7.80;4.17;;;;;;;7.94;53.50;100924.33;123850;1099;104389;-77
2022/04/17 07:27:27;;;;;;;5.33;3.50;;;;;;;7.94;53.80;100921.72;123909;1099;104714;-77
2022/04/17 07:29:58;;;;;;;6.97;3.33;;;;;;;7.95;53.98;100920.88;123801;1099;104268;-77
2022/04/17 07:32:34;;;;;;;5.20;3.50;;;;;;;8.00;53.62;100912.47;123652;1097;104249;-78
2022/04/17 07:35:08;;;;;;;6.00;3.50;;;;;;;8.10;53.81;100926.91;123668;1099;104262;-77
2022/04/17 07:37:41;;;;;;;5.33;3.53;;;;;;;8.21;52.88;100923.17;123870;1099;104322;-77
2022/04/17 07:40:17;;;;;;;5.77;3.50;;;;;;;8.18;52.40;100919.47;123880;1099;104945;-77
2022/04/17 07:42:49;;;;;;;6.00;3.40;;;;;;;8.20;52.46;100915.24;123865;1099;104265;-77
2022/04/17 07:45:24;;;;;;;7.70;3.40;;;;;;;8.25;52.17;100912.03;123737;1099;104345;-77
2022/04/17 07:47:56;;;;;;;6.20;3.87;;;;;;;8.34;52.41;100903.77;123855;1099;104274;-76
2022/04/17 07:50:30;;;;;;;6.27;3.73;;;;;;;8.43;52.27;100903.32;123727;1099;104370;-77
2022/04/17 07:53:07;;;;;;;6.43;3.47;;;;;;;8.54;52.35;100904.82;123765;1098;104297;-77
2022/04/17 07:55:42;;;;;;;5.17;3.30;;;;;;;8.67;51.59;100911.55;123744;1098;104464;-77
2022/04/17 07:58:22;;;;;;;5.33;3.63;;;;;;;8.73;51.74;100903.12;123831;1099;104351;-76
2022/04/17 08:00:58;;;;;;;6.37;3.80;;;;;;;8.78;51.11;100904.24;123800;1099;104402;-77
2022/04/17 08:03:46;;;;;;;5.33;3.63;;;;;;;8.87;51.56;100883.76;123713;1099;104452;-77
2022/04/17 08:06:20;;;;;;;5.63;3.17;;;;;;;8.95;50.92;100889.36;123754;1099;107636;-77
2022/04/17 08:08:54;;;;;;;7.37;3.53;;;;;;;9.06;50.55;100890.77;123891;1099;104354;-77
2022/04/17 08:11:28;;;;;;;7.40;3.60;;;;;;;9.21;50.17;100893.23;124179;1099;104374;-76
2022/04/17 08:13:59;;;;;;;4.28;3.45;;;;;;;9.17;49.74;100888.67;123901;1099;104294;-77
2022/04/17 08:16:31;;;;;;;4.83;3.40;;;;;;;9.12;49.68;100895.41;123572;1099;119965;-77
2022/04/17 08:19:04;;;;;;;5.23;3.30;;;;;;;9.21;50.01;100884.46;123778;1099;104444;-77
2022/04/17 08:21:37;;;;;;;3.67;2.93;;;;;;;9.35;49.28;100886.92;123670;1099;104246;-77
2022/04/17 08:24:07;;;;;;;;;;;;;;;9.39;48.07;100884.44;123820;1099;104347;-77
2022/04/17 08:26:40;;;;;;;6.13;3.80;;;;;;;9.49;49.55;100887.56;123791;1099;104287;-76
2022/04/17 08:29:17;;;;;;;5.80;3.63;;;;;;;9.61;49.41;100881.97;124118;1099;104270;-77
2022/04/17 08:31:50;;;;;;;4.30;3.10;;;;;;;9.60;46.82;100887.14;123935;1099;104339;-77
2022/04/17 08:34:24;;;;;;;3.92;3.20;;;;;;;9.57;47.28;100873.89;123912;1099;104296;-77
2022/04/17 08:36:56;;;;;;;4.42;3.27;;;;;;;9.61;47.18;100870.60;124031;1099;113044;-77
2022/04/17 08:39:27;;;;;;;5.20;3.67;;;;;;;9.73;47.74;100879.02;123848;1097;104300;-76
2022/04/17 08:42:00;;;;;;;6.80;3.13;;;;;;;9.78;45.80;100869.62;123719;1099;104355;-77
2022/04/17 08:44:33;;;;;;;4.93;3.10;;;;;;;9.78;45.89;100863.50;123770;1097;104451;-78
2022/04/17 08:47:07;;;;;;;4.63;3.30;;;;;;;9.73;47.14;100863.30;123836;1099;104265;-76
2022/04/17 08:49:46;;;;;;;4.42;3.22;;;;;;;9.70;45.48;100865.78;123845;1099;104239;-77
2022/04/17 08:52:21;;;;;;;4.17;3.10;;;;;;;9.75;45.24;100858.13;123780;1099;104335;-76
2022/04/17 08:54:53;;;;;;;6.00;3.35;;;;;;;9.81;45.91;100854.05;123846;1099;104399;-77
2022/04/17 08:57:25;;;;;;;4.83;3.23;;;;;;;9.81;45.72;100851.42;123937;1097;108129;-77
2022/04/17 08:59:58;;;;;;;3.57;2.90;;;;;;;9.82;45.39;100847.09;123888;1099;104393;-77
2022/04/17 09:02:31;;;;;;;3.92;2.95;;;;;;;9.75;45.71;100847.64;123862;1099;104235;-76
2022/04/17 09:05:06;;;;;;;5.53;3.20;;;;;;;9.82;45.13;100844.48;124084;1099;104338;-77
2022/04/17 09:07:50;;;;;;;3.83;3.00;;;;;;;9.96;44.93;100847.70;124257;1097;118937;-77
2022/04/17 09:10:28;;;;;;;;;;;;;;;10.07;43.93;100842.08;123991;1097;104261;-75
2022/04/17 09:13:02;;;;;;;4.17;3.10;;;;;;;10.23;41.70;100834.88;124101;1098;104249;-76
2022/04/17 09:15:36;;;;;;;3.47;2.90;;;;;;;10.31;44.52;100820.34;123878;1099;104342;-76
2022/04/17 09:18:09;;;;;;;3.60;3.03;;;;;;;10.32;43.64;100842.25;123817;1099;104275;-77
2022/04/17 09:20:48;;;;;;;4.10;2.80;;;;;;;10.25;43.67;100830.58;123731;1099;104396;-77
2022/04/17 09:23:36;;;;;;;3.73;2.73;;;;;;;10.22;42.61;100844.48;123918;1099;105645;-76
2022/04/17 09:26:14;;;;;;;3.77;2.77;;;;;;;10.37;43.51;100833.75;123872;1099;104255;-76
2022/04/17 09:28:47;;;;;;;4.63;2.87;;;;;;;10.54;43.01;100829.20;123841;1097;104265;-77
2022/04/17 09:31:19;;;;;;;5.23;3.07;;;;;;;10.64;43.23;100812.09;123845;1099;104258;-77
2022/04/17 09:33:54;;;;;;;3.30;2.70;;;;;;;10.89;42.42;100827.13;123931;1099;104238;-77
2022/04/17 09:36:37;;;;;;;3.60;2.80;;;;;;;11.09;41.05;100827.88;123652;1099;104300;-76
2022/04/17 09:39:16;;;;;;;3.50;2.73;;;;;;;11.27;41.85;100816.30;123906;1097;104243;-77
2022/04/17 09:42:04;;;;;;;3.97;2.60;;;;;;;11.27;40.92;100811.05;123903;1099;104316;-76
2022/04/17 09:44:45;;;;;;;4.67;3.00;;;;;;;11.29;41.29;100812.00;123933;1099;104335;-76
2022/04/17 09:47:21;;;;;;;4.30;2.70;;;;;;;11.38;41.51;100801.83;123952;1099;104188;-76
2022/04/17 09:50:02;;;;;;;4.27;2.60;;;;;;;11.47;41.95;100809.17;123923;1099;104348;-77
2022/04/17 09:52:42;;;;;;;4.97;2.80;;;;;;;11.53;41.76;100804.14;124108;1099;104581;-77
2022/04/17 09:55:14;;;;;;;5.47;3.00;;;;;;;11.36;40.04;100811.40;123838;1099;104313;-77
2022/04/17 09:57:45;;;;;;;4.80;3.00;;;;;;;11.24;40.16;100803.05;123924;1099;104258;-77
2022/04/17 10:00:19;;;;;;;3.43;2.80;;;;;;;11.25;40.56;100804.83;123773;1099;104296;-77
2022/04/17 10:02:51;;;;;;;3.08;2.72;;;;;;;11.29;41.25;100786.61;123905;1099;104229;-77
2022/04/17 10:05:28;;;;;;;3.07;2.67;;;;;;;11.30;40.72;100800.66;123871;1099;104344;-77
2022/04/17 10:08:08;;;;;;;3.33;2.80;;;;;;;11.42;40.61;100792.32;123705;1098;104373;-77
2022/04/17 10:10:41;;;;;;;3.97;2.80;;;;;;;11.30;39.67;100787.52;123848;1097;104301;-76
2022/04/17 10:13:13;;;;;;;5.90;2.70;;;;;;;11.30;40.23;100777.02;123816;1098;104303;-76
2022/04/17 10:15:47;;;;;;;3.55;2.65;;;;;;;11.41;39.65;100777.41;123777;1097;104626;-77
2022/04/17 10:18:23;;;;;;;2.90;2.58;;;;;;;11.39;39.03;100777.36;124046;1099;104296;-75
2022/04/17 10:20:57;;;;;;;4.30;2.80;;;;;;;11.40;39.59;100768.62;123910;1099;104271;-76
2022/04/17 10:23:29;;;;;;;4.62;2.80;;;;;;;11.37;39.06;100779.02;123873;1099;104236;-77
2022/04/17 10:26:06;;;;;;;5.33;2.70;;;;;;;11.37;39.11;100781.64;123741;1098;104781;-76
2022/04/17 10:28:43;;;;;;;4.20;2.90;;;;;;;11.41;39.41;100782.67;123827;1098;104453;-76
2022/04/17 10:31:20;;;;;;;3.17;2.87;;;;;;;11.42;39.40;100780.09;123765;1099;104291;-77
2022/04/17 10:34:20;;;;;;;4.67;3.00;;;;;;;11.39;38.88;100777.36;123832;1099;104450;-76
2022/04/17 10:37:49;;;;;;;3.40;2.53;;;;;;;11.43;39.29;100767.84;123726;1099;104366;-76
2022/04/17 10:40:23;;;;;;;4.17;2.97;;;;;;;11.36;38.56;100777.24;123577;1099;118746;-77
2022/04/17 10:43:01;;;;;;;6.30;2.80;;;;;;;11.36;37.88;100787.75;123775;1098;104366;-77
2022/04/17 10:45:54;;;;;;;3.10;2.57;;;;;;;11.43;38.96;100776.61;123916;1099;104239;-76
2022/04/17 10:48:30;;;;;;;4.53;2.97;;;;;;;11.43;38.29;100792.38;123742;1099;104377;-77
2022/04/17 10:51:15;;;;;;;3.10;2.63;;;;;;;11.34;38.32;100778.90;123710;1099;104236;-76
2022/04/17 10:54:00;;;;;;;3.53;2.57;;;;;;;11.33;38.75;100777.13;123712;1099;104347;-76
2022/04/17 10:56:32;;;;;;;;;;;;;;;11.23;37.55;100774.98;123719;1099;104271;-77
2022/04/17 10:59:07;;;;;;;3.70;2.80;;;;;;;11.28;38.43;100771.70;123799;1098;104328;-77
2022/04/17 11:02:02;;;;;;;3.63;2.70;;;;;;;11.39;38.16;100773.81;123681;1097;104674;-77
2022/04/17 11:04:41;;;;;;;3.07;2.50;;;;;;;11.41;38.53;100770.41;123931;1099;104351;-76
2022/04/17 11:07:31;;;;;;;3.50;2.60;;;;;;;11.52;38.30;100770.81;123590;1099;104261;-77
2022/04/17 11:10:31;;;;;;;3.50;2.53;;;;;;;11.63;38.41;100766.83;124015;1099;104338;-75
2022/04/17 11:13:03;;;;;;;4.03;3.10;;;;;;;11.70;37.87;100770.55;123946;1099;104251;-77
2022/04/17 11:15:43;;;;;;;4.87;2.80;;;;;;;11.80;38.33;100764.79;123827;1099;104310;-78
2022/04/17 11:18:20;;;;;;;5.00;3.00;;;;;;;11.95;38.24;100764.47;123476;1099;104332;-77
2022/04/17 11:20:54;;;;;;;5.43;3.27;;;;;;;12.14;38.58;100771.25;123591;1099;104249;-76
2022/04/17 11:24:04;;;;;;;4.43;2.83;;;;;;;12.13;37.22;100774.70;123761;1099;104807;-77
2022/04/17 11:27:12;;;;;;;4.70;3.20;;;;;;;11.86;35.44;100758.86;123768;1099;104351;-76
2022/04/17 11:29:50;;;;;;;4.40;2.63;;;;;;;11.77;37.10;100758.55;123788;1099;104300;-75
2022/04/17 11:32:52;;;;;;;3.70;2.85;;;;;;;11.90;37.50;100773.00;123592;1099;104319;-77
2022/04/17 11:35:25;;;;;;;3.63;2.50;;;;;;;12.05;37.60;100763.04;123705;1099;104666;-77
2022/04/17 11:38:02;;;;;;;3.47;2.60;;;;;;;11.97;36.68;100764.53;123844;1098;104233;-76
2022/04/17 11:40:38;;;;;;;3.43;2.70;;;;;;;11.86;36.72;100758.86;123696;1099;104315;-77
2022/04/17 11:43:14;;;;;;;2.90;2.60;;;;;;;11.93;37.04;100759.99;123607;1099;104718;-77
2022/04/17 11:45:47;;;;;;;4.17;3.00;;;;;;;11.94;37.12;100757.41;123863;1097;104358;-77
2022/04/17 11:48:20;;;;;;;4.30;2.80;;;;;;;11.94;36.86;100762.67;123704;1099;104296;-76
2022/04/17 11:50:57;;;;;;;3.00;2.42;;;;;;;11.85;36.08;100746.55;123852;1099;104741;-76
2022/04/17 11:53:33;;;;;;;3.13;2.50;;;;;;;11.72;35.45;100747.86;123766;1099;104338;-77
2022/04/17 11:56:07;;;;;;;2.70;2.40;;;;;;;11.67;36.46;100741.53;123691;1098;104290;-77
2022/04/17 11:58:40;;;;;;;3.30;2.30;;;;;;;11.67;36.70;100739.81;123782;1099;104302;-77